Time;durP1;ratioP1;P1;durP2;ratioP2;P2;SDS_P1;SDS_P2;PMS_P1;PMS_P2;Temp;Humidity;BMP_temperature;BMP_pressure;BME280_temperature;BME280_humidity;BME280_pressure;Samples;Min_cycle;Max_cycle;Signal;HPM_P1;HPM_P2
2023/05/13 00:01:15;;;;;;;4.00;3.70;;;21.00;64.20;21.80;101039.00;;;;5037928;28;20195;-59
2023/05/13 00:03:41;;;;;;;3.83;3.53;;;21.00;64.40;21.80;101035.00;;;;5024995;28;20266;-59
2023/05/13 00:06:06;;;;;;;4.13;3.77;;;21.00;64.60;21.80;101035.00;;;;5029438;28;20179;-59
2023/05/13 00:08:32;;;;;;;4.60;3.80;;;21.00;64.50;21.80;101041.00;;;;5029098;28;20187;-60
2023/05/13 00:10:58;;;;;;;3.57;3.37;;;21.00;64.40;21.80;101034.00;;;;5029276;28;20210;-59
2023/05/13 00:13:24;;;;;;;3.80;3.50;;;21.00;64.50;21.80;101035.00;;;;5029405;28;20201;-59
2023/05/13 00:15:50;;;;;;;4.40;3.70;;;21.00;64.60;21.80;101045.00;;;;5029038;28;20675;-60
2023/05/13 00:18:15;;;;;;;3.90;3.60;;;21.00;64.60;21.80;101033.00;;;;5028805;28;20781;-59
2023/05/13 00:20:41;;;;;;;3.73;3.43;;;21.00;64.50;21.80;101040.00;;;;5028825;28;20653;-60
2023/05/13 00:23:07;;;;;;;3.67;3.47;;;20.90;64.40;21.70;101036.00;;;;5029413;28;20530;-58
2023/05/13 00:25:33;;;;;;;3.50;3.20;;;20.90;64.40;21.70;101026.00;;;;5029129;28;20213;-60
2023/05/13 00:27:59;;;;;;;4.50;3.70;;;20.90;64.50;21.70;101040.00;;;;4990505;28;1071912;-60
2023/05/13 00:30:25;;;;;;;4.20;3.90;;;20.90;64.50;21.70;101032.00;;;;5029679;28;20200;-60
2023/05/13 00:32:51;;;;;;;3.80;3.50;;;20.90;64.40;21.70;101039.00;;;;5031376;28;20495;-59
2023/05/13 00:35:16;;;;;;;4.13;3.73;;;20.90;65.20;21.70;101049.00;;;;5029713;28;20341;-59
2023/05/13 00:37:42;;;;;;;3.80;3.50;;;20.90;64.30;21.70;101043.00;;;;5029688;28;20203;-59
2023/05/13 00:40:20;;;;;;;3.70;3.40;;;20.90;64.30;21.60;101055.00;;;;5029661;28;20195;-59
2023/05/13 00:42:46;;;;;;;4.40;3.60;;;20.80;64.30;21.60;101057.00;;;;5028729;28;20183;-60
2023/05/13 00:45:11;;;;;;;4.00;3.70;;;20.80;64.20;21.60;101051.00;;;;5030141;28;20637;-59
2023/05/13 00:47:38;;;;;;;3.80;3.50;;;20.80;64.30;21.60;101048.00;;;;5029507;28;20522;-59
2023/05/13 00:50:06;;;;;;;3.80;3.50;;;20.80;65.00;21.60;101040.00;;;;5029385;28;20198;-60
2023/05/13 00:52:31;;;;;;;3.53;3.27;;;20.80;64.20;21.60;101041.00;;;;5009250;28;20777;-59
2023/05/13 00:54:57;;;;;;;3.83;3.53;;;20.80;64.20;21.50;101036.00;;;;5029393;28;20190;-59
2023/05/13 00:57:23;;;;;;;4.33;3.67;;;20.80;64.20;21.50;101047.00;;;;5027405;28;20209;-59
2023/05/13 00:59:49;;;;;;;4.33;3.50;;;20.70;64.10;21.50;101044.00;;;;5028513;28;20206;-59
2023/05/13 01:03:01;;;;;;;3.90;3.60;;;20.70;64.10;21.50;101039.00;;;;5027975;28;20653;-61
2023/05/13 01:05:50;;;;;;;4.00;3.70;;;20.70;64.10;21.40;101038.00;;;;5028261;28;20656;-60
2023/05/13 01:09:02;;;;;;;3.80;3.50;;;20.70;64.10;21.40;101036.00;;;;5028825;28;20241;-59
2023/05/13 01:11:32;;;;;;;3.80;3.50;;;20.70;64.10;21.40;101025.00;;;;5027725;28;20275;-59
2023/05/13 01:14:11;;;;;;;4.10;3.80;;;20.70;64.20;21.40;101035.00;;;;5027644;28;20185;-59
2023/05/13 01:16:57;;;;;;;3.83;3.53;;;20.60;64.10;21.30;101025.00;;;;5027785;28;20186;-60
2023/05/13 01:19:51;;;;;;;4.50;3.60;;;20.60;64.10;21.30;101028.00;;;;5028934;28;20366;-59
2023/05/13 01:22:16;;;;;;;4.23;3.60;;;20.60;64.20;21.30;101031.00;;;;5028940;28;20179;-59
2023/05/13 01:24:42;;;;;;;4.07;3.60;;;20.60;64.30;21.30;100970.00;;;;5037495;28;20201;-60
2023/05/13 01:27:08;;;;;;;3.50;3.30;;;20.60;64.30;21.30;101027.00;;;;5042602;28;20244;-59
2023/05/13 01:29:34;;;;;;;3.93;3.63;;;20.60;64.30;21.30;101038.00;;;;5031063;28;20653;-58
2023/05/13 01:31:59;;;;;;;4.17;3.43;;;20.60;64.30;21.20;101017.00;;;;5030145;28;20188;-59
2023/05/13 01:34:25;;;;;;;3.80;3.50;;;20.50;64.30;21.20;101021.00;;;;5029311;28;20187;-61
2023/05/13 01:36:51;;;;;;;3.90;3.60;;;20.50;64.20;21.20;101016.00;;;;5031151;28;20235;-59
2023/05/13 01:39:17;;;;;;;4.70;3.73;;;20.50;64.30;21.20;101030.00;;;;5037100;28;20222;-60
2023/05/13 01:41:43;;;;;;;4.10;3.80;;;20.50;64.30;21.20;101029.00;;;;5037473;28;20535;-59
2023/05/13 01:44:09;;;;;;;3.87;3.57;;;20.60;64.50;21.20;101023.00;;;;5028176;28;20606;-60
2023/05/13 01:46:37;;;;;;;4.03;3.70;;;20.50;64.40;21.20;101030.00;;;;5028615;28;20193;-59
2023/05/13 01:49:03;;;;;;;4.00;3.70;;;20.50;64.40;21.20;101032.00;;;;5028503;28;20192;-59
2023/05/13 01:51:30;;;;;;;4.13;3.73;;;20.50;64.40;21.20;101031.00;;;;5028439;28;20214;-60
2023/05/13 01:53:56;;;;;;;4.00;3.70;;;20.50;64.40;21.10;101036.00;;;;5026826;28;20187;-60
2023/05/13 01:56:22;;;;;;;4.07;3.67;;;20.50;64.30;21.10;101039.00;;;;5026974;28;20236;-59
2023/05/13 01:58:48;;;;;;;3.97;3.67;;;20.50;64.40;21.10;101032.00;;;;5027792;28;20234;-59
2023/05/13 02:01:14;;;;;;;3.73;3.43;;;20.40;64.20;21.10;101040.00;;;;5028174;28;20289;-59
2023/05/13 02:03:39;;;;;;;3.80;3.50;;;20.40;64.40;21.10;101035.00;;;;5028018;28;20194;-60
2023/05/13 02:06:05;;;;;;;3.83;3.53;;;20.40;64.40;21.10;101046.00;;;;5028027;28;20593;-59
2023/05/13 02:08:31;;;;;;;4.37;3.97;;;20.40;65.30;21.10;101032.00;;;;5027947;28;20686;-59
2023/05/13 02:10:57;;;;;;;3.67;3.37;;;20.50;64.70;21.10;100961.00;;;;5027856;28;20251;-58
2023/05/13 02:13:23;;;;;;;3.90;3.60;;;20.40;64.60;21.10;101029.00;;;;5027909;28;20183;-60
2023/05/13 02:15:49;;;;;;;4.10;3.70;;;20.40;64.50;21.10;101032.00;;;;5028072;28;20656;-58
2023/05/13 02:18:15;;;;;;;3.77;3.47;;;20.40;64.40;21.10;101033.00;;;;5019856;28;20237;-59
2023/05/13 02:20:40;;;;;;;3.90;3.60;;;20.30;65.10;21.00;101035.00;;;;5019772;28;20740;-58
2023/05/13 02:23:06;;;;;;;3.80;3.50;;;20.40;64.40;21.00;101047.00;;;;5032641;28;20253;-59
2023/05/13 02:25:33;;;;;;;4.00;3.70;;;20.30;64.30;21.00;101041.00;;;;5034701;28;20234;-57
2023/05/13 02:27:59;;;;;;;4.27;3.87;;;20.30;64.30;21.00;101041.00;;;;5022407;28;20214;-60
2023/05/13 02:30:26;;;;;;;3.40;3.20;;;20.30;64.30;21.00;101039.00;;;;5023222;28;20629;-60
2023/05/13 02:32:55;;;;;;;3.90;3.57;;;20.30;64.30;21.00;101035.00;;;;5027999;28;20229;-59
2023/05/13 02:35:21;;;;;;;3.60;3.30;;;20.30;65.00;20.90;101039.00;;;;5027315;28;20316;-59
2023/05/13 02:37:47;;;;;;;3.93;3.63;;;20.30;64.30;20.90;101038.00;;;;5027821;28;20657;-60
2023/05/13 02:40:13;;;;;;;3.90;3.50;;;20.20;64.20;20.90;101034.00;;;;5027872;28;20204;-59
2023/05/13 02:42:39;;;;;;;4.00;3.70;;;20.20;64.00;20.90;101041.00;;;;5027852;28;20182;-58
2023/05/13 02:45:05;;;;;;;3.97;3.67;;;20.20;64.10;20.90;101027.00;;;;5027610;28;20289;-59
2023/05/13 02:47:31;;;;;;;4.20;3.80;;;20.20;64.00;20.90;101034.00;;;;5027799;28;20189;-59
2023/05/13 02:49:57;;;;;;;3.73;3.43;;;20.20;64.00;20.80;101033.00;;;;5027845;28;20195;-59
2023/05/13 02:52:23;;;;;;;3.70;3.40;;;20.20;64.00;20.80;101025.00;;;;5026569;28;20175;-59
2023/05/13 02:54:49;;;;;;;3.80;3.50;;;20.20;64.00;20.80;101027.00;;;;5027463;28;20209;-59
2023/05/13 02:57:15;;;;;;;3.60;3.23;;;20.20;64.00;20.80;101025.00;;;;5027409;28;20177;-59
2023/05/13 02:59:40;;;;;;;4.37;3.50;;;20.20;64.10;20.80;101025.00;;;;5018892;28;20218;-58
2023/05/13 03:02:06;;;;;;;3.90;3.50;;;20.20;64.10;20.80;101020.00;;;;5027482;28;20186;-59
2023/05/13 03:04:32;;;;;;;3.73;3.43;;;20.20;64.20;20.80;101028.00;;;;5026174;28;20177;-59
2023/05/13 03:06:57;;;;;;;4.97;4.00;;;20.20;64.20;20.80;101029.00;;;;5027393;28;20177;-59
2023/05/13 03:09:23;;;;;;;3.80;3.50;;;20.20;64.30;20.80;101022.00;;;;5027262;28;20577;-59
2023/05/13 03:11:49;;;;;;;4.67;3.40;;;20.20;64.60;20.80;101038.00;;;;5027578;28;20182;-60
2023/05/13 03:14:15;;;;;;;5.33;3.50;;;20.20;64.70;20.80;101033.00;;;;5026146;28;20193;-60
2023/05/13 03:16:40;;;;;;;3.80;3.50;;;20.20;65.00;20.80;101032.00;;;;5019535;28;20269;-60
2023/05/13 03:19:06;;;;;;;5.00;3.63;;;20.20;65.10;20.70;101040.00;;;;5011880;28;20202;-59
2023/05/13 03:21:32;;;;;;;6.67;3.83;;;20.20;65.50;20.80;101030.00;;;;5028290;28;20646;-59
2023/05/13 03:23:58;;;;;;;8.43;4.23;;;20.10;65.30;20.80;101025.00;;;;5029565;28;20182;-58
2023/05/13 03:26:23;;;;;;;10.80;4.33;;;20.10;65.20;20.80;101026.00;;;;5035982;28;20168;-61
2023/05/13 03:28:49;;;;;;;8.93;4.57;;;20.10;65.30;20.70;101031.00;;;;5047659;28;20207;-60
2023/05/13 03:31:15;;;;;;;9.10;4.27;;;20.10;65.40;20.70;101029.00;;;;5030478;28;20201;-60
2023/05/13 03:33:40;;;;;;;12.70;4.40;;;20.10;65.30;20.70;101037.00;;;;5030890;28;20183;-60
2023/05/13 03:36:06;;;;;;;9.10;4.83;;;20.10;65.40;20.70;101030.00;;;;5030814;28;20794;-59
2023/05/13 03:38:32;;;;;;;10.13;4.87;;;20.10;65.40;20.70;101031.00;;;;5031465;28;20243;-59
2023/05/13 03:40:58;;;;;;;12.17;4.67;;;20.10;65.40;20.70;101033.00;;;;5039204;28;20202;-59
2023/05/13 03:43:24;;;;;;;11.63;5.43;;;20.10;65.50;20.70;101031.00;;;;5042764;28;20187;-59
2023/05/13 03:45:50;;;;;;;15.27;5.13;;;20.10;65.60;20.70;101032.00;;;;5030614;28;20594;-59
2023/05/13 03:48:16;;;;;;;12.93;5.20;;;20.10;65.60;20.70;101042.00;;;;5029941;28;20712;-60
2023/05/13 03:50:42;;;;;;;11.03;4.67;;;20.00;65.60;20.70;101033.00;;;;5030317;28;20282;-61
2023/05/13 03:53:08;;;;;;;13.07;4.67;;;20.00;65.50;20.60;101040.00;;;;5028498;28;20257;-60
2023/05/13 03:55:34;;;;;;;7.73;4.57;;;20.00;65.50;20.60;101051.00;;;;5030052;28;20228;-60
2023/05/13 03:58:06;;;;;;;10.13;4.70;;;20.00;65.50;20.60;101038.00;;;;5028973;28;20190;-59
2023/05/13 04:00:31;;;;;;;10.00;4.70;;;20.00;65.50;20.60;101037.00;;;;5028343;28;20207;-60
2023/05/13 04:02:57;;;;;;;9.03;4.80;;;20.00;65.60;20.60;101040.00;;;;5029963;28;20213;-59
2023/05/13 04:05:23;;;;;;;9.97;4.50;;;20.00;65.50;20.60;100991.00;;;;5028553;28;20179;-59
2023/05/13 04:07:48;;;;;;;8.77;4.17;;;20.00;65.50;20.60;101044.00;;;;5028777;28;20233;-59
2023/05/13 04:10:14;;;;;;;6.67;4.37;;;20.00;65.50;20.60;101037.00;;;;5029634;28;20236;-58
2023/05/13 04:12:40;;;;;;;13.90;4.57;;;19.90;65.40;20.60;101044.00;;;;5029654;28;20606;-60
2023/05/13 04:15:06;;;;;;;11.10;4.40;;;20.00;65.50;20.60;101046.00;;;;5029470;28;20197;-59
2023/05/13 04:17:32;;;;;;;7.43;4.20;;;19.90;65.60;20.60;101047.00;;;;5028527;28;20219;-60
2023/05/13 04:19:58;;;;;;;9.80;4.50;;;19.90;65.80;20.60;101049.00;;;;5026775;28;20310;-60
2023/05/13 04:22:23;;;;;;;6.73;4.27;;;19.90;65.80;20.60;101052.00;;;;5029599;28;20185;-58
2023/05/13 04:24:55;;;;;;;9.83;4.97;;;19.90;65.90;20.60;101057.00;;;;5027493;28;20745;-61
2023/05/13 04:27:22;;;;;;;8.07;4.40;;;19.90;65.90;20.60;101049.00;;;;5027343;28;20192;-59
2023/05/13 04:29:48;;;;;;;8.67;4.60;;;19.90;65.90;20.60;101048.00;;;;5028783;28;20666;-59
2023/05/13 04:32:20;;;;;;;6.90;4.53;;;19.90;65.90;20.60;101042.00;;;;5023301;28;20669;-60
2023/05/13 04:34:50;;;;;;;9.40;4.30;;;19.90;65.90;20.60;101047.00;;;;5031361;28;20297;-60
2023/05/13 04:37:16;;;;;;;6.27;4.03;;;19.90;65.90;20.60;101046.00;;;;5023841;28;20193;-57
2023/05/13 04:39:45;;;;;;;7.70;4.20;;;19.90;65.90;20.60;101051.00;;;;5029662;28;20281;-59
2023/05/13 04:42:11;;;;;;;5.57;4.20;;;19.80;65.80;20.60;101049.00;;;;5029526;28;20181;-59
2023/05/13 04:44:37;;;;;;;7.73;4.10;;;19.80;65.90;20.60;101055.00;;;;5029594;28;20178;-59
2023/05/13 04:47:03;;;;;;;7.23;4.10;;;19.80;65.90;20.60;101051.00;;;;5031978;28;20689;-61
2023/05/13 04:49:28;;;;;;;5.33;3.90;;;19.80;65.90;20.60;101058.00;;;;5033762;28;20197;-59
2023/05/13 04:51:54;;;;;;;7.27;4.17;;;19.80;65.90;20.50;101057.00;;;;5031832;28;20183;-59
2023/05/13 04:54:20;;;;;;;4.90;3.60;;;19.80;66.00;20.50;101057.00;;;;5030720;28;20192;-59
2023/05/13 04:56:46;;;;;;;7.50;3.97;;;19.80;66.00;20.50;101064.00;;;;5030291;28;20328;-58
2023/05/13 04:59:11;;;;;;;6.73;3.80;;;19.80;66.10;20.50;101058.00;;;;5019004;28;20205;-60
2023/05/13 05:01:37;;;;;;;7.30;3.80;;;19.80;66.10;20.50;101064.00;;;;5028709;28;20237;-60
2023/05/13 05:04:04;;;;;;;5.27;3.93;;;19.80;66.10;20.50;101060.00;;;;5028909;28;20174;-60
2023/05/13 05:06:31;;;;;;;5.67;4.03;;;19.70;66.00;20.50;101065.00;;;;5028959;28;20198;-60
2023/05/13 05:08:57;;;;;;;5.23;3.67;;;19.70;66.00;20.50;101066.00;;;;5028775;28;20194;-60
2023/05/13 05:11:23;;;;;;;5.77;4.07;;;19.70;66.10;20.50;100996.00;;;;5030056;28;20272;-61
2023/05/13 05:13:49;;;;;;;6.47;3.80;;;19.70;66.10;20.50;101063.00;;;;5029427;28;20179;-61
2023/05/13 05:16:15;;;;;;;6.70;3.80;;;19.80;66.20;20.50;101040.00;;;;5030088;28;20211;-60
2023/05/13 05:18:42;;;;;;;4.77;3.80;;;19.70;66.20;20.50;101079.00;;;;5028083;28;20284;-61
2023/05/13 05:21:08;;;;;;;7.57;3.97;;;19.70;66.10;20.50;101079.00;;;;5028996;28;20246;-62
2023/05/13 05:23:34;;;;;;;4.13;3.40;;;19.70;66.20;20.50;101083.00;;;;5029966;28;20206;-60
2023/05/13 05:26:00;;;;;;;5.93;3.77;;;19.70;66.20;20.40;101083.00;;;;5030161;28;20181;-60
2023/05/13 05:28:26;;;;;;;5.47;3.60;;;19.60;66.10;20.40;101090.00;;;;5043374;28;20190;-60
2023/05/13 05:30:52;;;;;;;5.67;3.90;;;19.70;66.20;20.40;101086.00;;;;5037776;28;20211;-60
2023/05/13 05:33:18;;;;;;;7.00;3.83;;;19.70;66.20;20.40;101085.00;;;;5030418;28;20181;-60
2023/05/13 05:35:43;;;;;;;6.53;3.83;;;19.60;66.10;20.40;101080.00;;;;5028739;28;20191;-60
2023/05/13 05:38:09;;;;;;;4.33;3.60;;;19.60;66.20;20.40;101080.00;;;;5011739;28;20667;-59
2023/05/13 05:40:38;;;;;;;4.80;3.80;;;19.60;66.20;20.40;101085.00;;;;5029375;28;20201;-60
2023/05/13 05:43:04;;;;;;;5.13;3.33;;;19.70;66.40;20.40;101077.00;;;;5047529;28;20202;-58
2023/05/13 05:45:30;;;;;;;6.10;3.53;;;19.60;66.20;20.40;101094.00;;;;5038619;28;20186;-59
2023/05/13 05:47:56;;;;;;;3.90;3.50;;;19.60;66.20;20.40;101084.00;;;;5029403;28;20181;-60
2023/05/13 05:50:22;;;;;;;5.57;3.40;;;19.60;66.20;20.40;101086.00;;;;5028288;28;20241;-60
2023/05/13 05:52:48;;;;;;;3.67;3.10;;;19.60;66.20;20.40;101093.00;;;;5029894;28;20206;-60
2023/05/13 05:55:14;;;;;;;4.10;3.43;;;19.60;66.20;20.40;101088.00;;;;5028870;28;20185;-61
2023/05/13 05:57:40;;;;;;;3.87;3.57;;;19.60;66.20;20.40;101092.00;;;;5028197;28;20230;-61
2023/05/13 06:00:06;;;;;;;5.10;3.40;;;19.60;66.20;20.30;101093.00;;;;5008977;28;20705;-59
2023/05/13 06:02:32;;;;;;;4.77;3.50;;;19.60;66.20;20.30;101100.00;;;;5026467;28;20177;-60
2023/05/13 06:04:58;;;;;;;3.60;3.30;;;19.60;66.30;20.30;101089.00;;;;5029533;28;20256;-61
2023/05/13 06:07:23;;;;;;;4.13;3.53;;;19.60;66.30;20.30;101107.00;;;;5027394;28;20625;-62
2023/05/13 06:09:49;;;;;;;3.77;3.37;;;19.60;66.40;20.30;101104.00;;;;5027565;28;20202;-60
2023/05/13 06:12:15;;;;;;;3.80;3.40;;;19.60;66.40;20.30;101108.00;;;;5027262;28;20197;-61
2023/05/13 06:14:41;;;;;;;4.17;3.27;;;19.50;66.40;20.30;101110.00;;;;5026730;28;20195;-60
2023/05/13 06:17:06;;;;;;;4.33;3.60;;;19.60;66.50;20.30;101107.00;;;;5028464;28;20187;-61
2023/05/13 06:19:32;;;;;;;3.70;3.30;;;19.60;66.50;20.30;101113.00;;;;5027383;28;20241;-59
2023/05/13 06:21:58;;;;;;;3.80;3.37;;;19.50;66.50;20.30;101110.00;;;;5029059;28;20202;-58
2023/05/13 06:24:23;;;;;;;4.03;3.33;;;19.50;66.60;20.30;101108.00;;;;5029197;28;20262;-60
2023/05/13 06:26:49;;;;;;;4.77;3.10;;;19.50;66.60;20.30;101108.00;;;;5027471;28;20704;-60
2023/05/13 06:29:15;;;;;;;4.13;3.70;;;19.50;66.60;20.30;101109.00;;;;5027350;28;20191;-61
2023/05/13 06:31:41;;;;;;;3.83;3.43;;;19.50;66.70;20.30;101092.00;;;;5028831;28;20290;-60
2023/05/13 06:34:07;;;;;;;4.73;3.60;;;19.50;66.80;20.30;101115.00;;;;5027997;28;20310;-61
2023/05/13 06:36:33;;;;;;;3.47;3.17;;;19.60;66.80;20.30;101107.00;;;;5027572;28;20812;-59
2023/05/13 06:38:59;;;;;;;4.20;3.30;;;19.50;66.80;20.30;101109.00;;;;5010481;28;20270;-60
2023/05/13 06:41:25;;;;;;;3.23;2.93;;;19.60;66.80;20.30;101109.00;;;;5027632;28;20201;-60
2023/05/13 06:43:51;;;;;;;3.80;3.17;;;19.60;66.80;20.20;101108.00;;;;5027601;28;20689;-59
2023/05/13 06:46:16;;;;;;;3.83;3.43;;;19.60;66.90;20.20;101107.00;;;;5026592;28;20215;-59
2023/05/13 06:48:42;;;;;;;3.50;3.20;;;19.60;66.90;20.20;101108.00;;;;5028017;28;20183;-59
2023/05/13 06:51:08;;;;;;;3.43;3.13;;;19.60;66.90;20.20;101112.00;;;;5028935;28;20245;-60
2023/05/13 06:53:33;;;;;;;3.30;2.97;;;19.60;66.90;20.20;101115.00;;;;5029025;28;20219;-59
2023/05/13 06:55:59;;;;;;;5.10;3.37;;;19.50;66.80;20.20;101119.00;;;;5029564;28;20251;-60
2023/05/13 06:58:25;;;;;;;3.93;3.03;;;19.60;66.90;20.20;101116.00;;;;5030977;28;20224;-60
2023/05/13 07:00:51;;;;;;;3.40;3.10;;;19.50;67.00;20.20;101119.00;;;;5031643;28;20673;-60
2023/05/13 07:03:16;;;;;;;3.60;3.07;;;19.50;67.00;20.20;101119.00;;;;5032398;28;20649;-61
2023/05/13 07:05:42;;;;;;;3.40;3.10;;;19.50;67.00;20.20;101116.00;;;;5013603;28;20186;-60
2023/05/13 07:08:08;;;;;;;4.43;3.27;;;19.50;67.00;20.20;101118.00;;;;5029066;28;20537;-60
2023/05/13 07:10:34;;;;;;;3.83;3.27;;;19.50;67.00;20.20;101127.00;;;;5035957;28;20261;-60
2023/05/13 07:13:01;;;;;;;3.73;3.30;;;19.50;67.10;20.20;101113.00;;;;5035456;28;20179;-60
2023/05/13 07:15:27;;;;;;;5.17;3.50;;;19.50;67.10;20.20;101105.00;;;;5030791;28;20179;-60
2023/05/13 07:17:53;;;;;;;4.20;3.10;;;19.60;67.30;20.20;101102.00;;;;5029795;28;20183;-61
2023/05/13 07:20:21;;;;;;;3.93;3.20;;;19.50;67.20;20.20;101105.00;;;;5030171;28;20232;-60
2023/05/13 07:22:50;;;;;;;3.53;3.23;;;19.50;67.40;20.20;101104.00;;;;5030258;28;20179;-60
2023/05/13 07:25:17;;;;;;;4.50;3.20;;;19.50;67.50;20.20;101104.00;;;;5030837;28;20191;-60
2023/05/13 07:27:43;;;;;;;3.30;2.93;;;19.50;67.60;20.20;101120.00;;;;5030214;28;20587;-61
2023/05/13 07:30:10;;;;;;;3.90;3.23;;;19.50;67.50;20.30;101121.00;;;;5030557;28;20204;-62
2023/05/13 07:32:36;;;;;;;3.20;2.97;;;19.50;67.60;20.30;101116.00;;;;5054119;28;20183;-61
2023/05/13 07:35:02;;;;;;;3.93;3.53;;;19.50;67.50;20.30;101113.00;;;;5032155;28;20213;-61
2023/05/13 07:37:28;;;;;;;3.40;3.10;;;19.50;67.50;20.30;101120.00;;;;5033895;28;20278;-61
2023/05/13 07:39:54;;;;;;;3.40;3.10;;;19.50;67.60;20.30;101123.00;;;;5032947;28;20238;-61
2023/05/13 07:42:20;;;;;;;3.47;3.17;;;19.50;67.60;20.30;101119.00;;;;5024164;28;20190;-60
2023/05/13 07:44:45;;;;;;;3.63;3.33;;;19.50;67.60;20.30;101108.00;;;;5037560;28;20179;-62
2023/05/13 07:47:11;;;;;;;3.50;3.20;;;19.50;67.70;20.30;101113.00;;;;5055785;28;20213;-62
2023/05/13 07:49:37;;;;;;;3.47;3.03;;;19.50;67.70;20.30;101124.00;;;;5035149;28;20190;-59
2023/05/13 07:52:03;;;;;;;3.70;3.40;;;19.50;67.80;20.30;101118.00;;;;5031091;28;20178;-60
2023/05/13 07:54:29;;;;;;;3.70;3.30;;;19.50;67.90;20.30;101112.00;;;;5030624;28;20185;-60
2023/05/13 07:56:54;;;;;;;3.70;3.40;;;19.50;68.00;20.30;101096.00;;;;5030664;28;20674;-60
2023/05/13 07:59:20;;;;;;;3.40;3.10;;;19.50;68.00;20.30;101115.00;;;;5031884;28;20191;-61
2023/05/13 08:01:46;;;;;;;3.80;3.40;;;19.50;68.00;20.10;101109.00;;;;5032130;28;20728;-59
2023/05/13 08:04:11;;;;;;;3.80;3.50;;;19.50;68.90;20.30;101107.00;;;;5029713;28;20178;-59
2023/05/13 08:06:37;;;;;;;3.50;3.20;;;19.50;68.20;20.30;101120.00;;;;5030371;28;20179;-60
2023/05/13 08:09:03;;;;;;;3.50;3.20;;;19.50;68.20;20.30;101116.00;;;;5031560;28;20186;-59
2023/05/13 08:11:29;;;;;;;3.10;2.90;;;19.50;68.20;20.30;101122.00;;;;5030290;28;20231;-60
2023/05/13 08:13:55;;;;;;;3.60;3.30;;;19.60;68.40;20.30;101124.00;;;;5031734;28;20670;-59
2023/05/13 08:16:20;;;;;;;3.40;3.10;;;19.50;68.30;20.30;101122.00;;;;5031961;28;20183;-60
2023/05/13 08:18:46;;;;;;;3.43;3.13;;;19.50;68.40;20.30;101122.00;;;;5030528;28;20205;-59
2023/05/13 08:21:12;;;;;;;3.50;3.20;;;19.50;68.50;20.30;101120.00;;;;5032220;28;20226;-59
2023/05/13 08:23:37;;;;;;;3.67;3.37;;;19.50;68.70;20.30;101126.00;;;;5030257;28;20653;-59
2023/05/13 08:26:03;;;;;;;3.77;3.40;;;19.50;68.80;20.30;101122.00;;;;5031980;28;20206;-60
2023/05/13 08:28:29;;;;;;;3.70;3.40;;;19.60;68.90;20.30;101123.00;;;;5031203;28;20190;-59
2023/05/13 08:31:01;;;;;;;3.77;3.37;;;19.60;68.90;20.40;101112.00;;;;5031394;28;20666;-60
2023/05/13 08:33:30;;;;;;;3.90;3.50;;;19.60;68.90;20.40;101117.00;;;;5031348;28;20718;-60
2023/05/13 08:35:58;;;;;;;8.07;3.80;;;19.60;69.00;20.40;101110.00;;;;5031858;28;20173;-59
2023/05/13 08:38:23;;;;;;;5.03;3.70;;;19.60;69.70;20.40;101107.00;;;;5027022;28;20233;-59
2023/05/13 08:40:49;;;;;;;4.80;3.73;;;19.60;69.70;20.40;101106.00;;;;5032421;28;20274;-59
2023/05/13 08:43:16;;;;;;;5.33;3.20;;;19.60;69.60;20.40;101105.00;;;;5032671;28;20168;-60
2023/05/13 08:45:46;;;;;;;10.07;3.60;;;19.60;69.60;20.40;101108.00;;;;5031037;28;20209;-60
2023/05/13 08:48:15;;;;;;;6.17;3.83;;;19.60;69.50;20.40;101101.00;;;;5029459;28;20680;-60
2023/05/13 08:50:41;;;;;;;4.20;3.63;;;19.60;69.60;20.40;101093.00;;;;5029405;28;20282;-61
2023/05/13 08:53:06;;;;;;;5.00;3.50;;;19.60;70.00;20.40;101099.00;;;;5029571;28;20175;-60
2023/05/13 08:55:32;;;;;;;5.73;3.70;;;19.60;70.30;20.50;101099.00;;;;5029109;28;20618;-60
2023/05/13 08:57:58;;;;;;;6.60;3.50;;;19.70;70.50;20.50;101106.00;;;;5030359;28;20235;-60
2023/05/13 09:00:24;;;;;;;3.77;3.47;;;19.60;70.50;20.50;101094.00;;;;5030680;28;20596;-59
2023/05/13 09:02:50;;;;;;;4.17;3.70;;;19.70;70.70;20.50;101095.00;;;;5030408;28;20175;-60
2023/05/13 09:05:16;;;;;;;4.83;3.57;;;19.70;70.70;20.50;101070.00;;;;5030495;28;20176;-59
2023/05/13 09:07:41;;;;;;;4.13;3.77;;;19.70;71.00;20.50;101093.00;;;;5028487;28;20180;-60
2023/05/13 09:10:09;;;;;;;3.80;3.47;;;19.70;71.10;20.50;101065.00;;;;5024307;28;20199;-59
2023/05/13 09:12:53;;;;;;;3.60;3.30;;;19.70;71.40;20.60;101088.00;;;;5026437;28;20234;-59
2023/05/13 09:15:25;;;;;;;7.27;3.67;;;19.70;71.30;20.60;101091.00;;;;5030089;28;20179;-59
2023/05/13 09:18:19;;;;;;;6.60;3.40;;;19.70;71.70;20.60;101095.00;;;;5030023;28;20193;-58
2023/05/13 09:20:44;;;;;;;4.07;3.60;;;19.70;71.70;20.60;101092.00;;;;5029552;28;20227;-59
2023/05/13 09:23:10;;;;;;;4.37;3.40;;;19.70;71.70;20.60;101083.00;;;;5029155;28;20183;-59
2023/05/13 09:25:36;;;;;;;5.43;3.37;;;19.70;71.80;20.60;101101.00;;;;5029419;28;20179;-58
2023/05/13 09:28:04;;;;;;;4.17;3.43;;;19.70;72.50;20.60;101085.00;;;;5029610;28;20187;-59
2023/05/13 09:30:35;;;;;;;3.97;3.47;;;19.70;71.80;20.70;101089.00;;;;5009443;28;20211;-59
2023/05/13 09:33:15;;;;;;;3.60;3.30;;;19.70;71.80;20.70;101077.00;;;;5031786;28;20193;-60
2023/05/13 09:35:51;;;;;;;4.80;3.33;;;19.80;72.10;20.70;101082.00;;;;5035237;28;20187;-59
2023/05/13 09:38:23;;;;;;;5.23;3.43;;;19.80;72.00;20.70;101079.00;;;;5039180;28;20182;-59
2023/05/13 09:40:57;;;;;;;4.97;3.47;;;19.80;71.90;20.70;101074.00;;;;5037378;28;20334;-59
2023/05/13 09:43:25;;;;;;;5.00;3.70;;;19.80;72.20;20.70;101071.00;;;;5038229;28;20191;-59
2023/05/13 09:45:55;;;;;;;4.83;3.53;;;19.80;72.40;20.80;101067.00;;;;5031210;28;20203;-59
2023/05/13 09:48:24;;;;;;;3.67;3.37;;;19.90;72.30;20.80;101071.00;;;;5030934;28;20186;-60
2023/05/13 09:50:50;;;;;;;3.57;3.20;;;19.90;71.90;20.80;101060.00;;;;5041776;28;20204;-59
2023/05/13 09:53:16;;;;;;;3.60;3.30;;;19.90;72.30;20.80;101068.00;;;;5041292;28;20190;-60
2023/05/13 09:55:53;;;;;;;3.40;3.10;;;19.90;72.30;20.90;101048.00;;;;5030636;28;20199;-60
2023/05/13 09:58:19;;;;;;;4.03;3.50;;;19.90;72.50;20.90;101050.00;;;;5029888;28;20651;-52
2023/05/13 10:00:46;;;;;;;3.70;3.37;;;19.90;72.40;20.90;101057.00;;;;5029538;28;20575;-60
2023/05/13 10:03:12;;;;;;;3.60;3.30;;;19.90;71.80;20.90;101053.00;;;;5028239;28;20172;-61
2023/05/13 10:05:38;;;;;;;3.60;3.30;;;20.00;71.90;20.90;101055.00;;;;5023573;28;20184;-60
2023/05/13 10:08:04;;;;;;;4.07;3.37;;;20.00;72.00;20.90;101051.00;;;;5011996;28;20561;-59
2023/05/13 10:10:31;;;;;;;4.07;3.67;;;20.00;72.10;20.90;101055.00;;;;5028554;28;20207;-60
2023/05/13 10:13:02;;;;;;;3.63;3.33;;;20.00;72.00;21.00;101049.00;;;;5028831;28;20231;-59
2023/05/13 10:15:28;;;;;;;3.60;3.30;;;20.00;72.20;21.00;101044.00;;;;5028718;28;20185;-61
2023/05/13 10:17:54;;;;;;;5.27;3.60;;;20.00;72.10;21.00;101030.00;;;;5028506;28;20173;-59
2023/05/13 10:20:21;;;;;;;5.30;3.10;;;20.00;72.40;21.00;101033.00;;;;5028272;28;20205;-61
2023/05/13 10:22:47;;;;;;;3.93;3.30;;;20.10;72.50;21.00;101026.00;;;;5028577;28;20598;-60
2023/05/13 10:25:12;;;;;;;3.50;3.20;;;20.10;72.50;21.00;101025.00;;;;5028565;28;20217;-59
2023/05/13 10:27:38;;;;;;;5.70;3.30;;;20.00;72.60;21.10;101029.00;;;;5029363;28;20406;-59
2023/05/13 10:30:08;;;;;;;3.40;3.17;;;20.10;72.70;21.10;101020.00;;;;5029205;28;20687;-61
2023/05/13 10:32:34;;;;;;;3.90;3.30;;;20.10;72.80;21.10;101014.00;;;;5032877;28;20190;-58
2023/05/13 10:35:20;;;;;;;4.43;3.13;;;20.10;72.90;21.10;101021.00;;;;5008046;28;20194;-60
2023/05/13 10:38:00;;;;;;;4.10;3.20;;;20.10;72.80;21.10;101024.00;;;;5015593;28;20198;-60
2023/05/13 10:40:53;;;;;;;4.53;3.23;;;20.20;72.90;21.20;101023.00;;;;5024293;28;20205;-60
2023/05/13 10:43:29;;;;;;;3.83;3.30;;;20.10;72.70;21.20;101016.00;;;;5033406;28;20654;-61
2023/05/13 10:46:03;;;;;;;3.40;3.10;;;20.20;72.80;21.20;101021.00;;;;5032503;28;20218;-59
2023/05/13 10:48:49;;;;;;;4.63;3.27;;;20.20;72.70;21.20;101012.00;;;;5024236;28;20180;-60